Terminal Aerodrome Forecast
Issued by NWS

Home | Current Version | Previous Version | Graphics & Text | Print | Product List | Glossary On
Versions: 1 2 3 4 5 6 7 8 9 10 11 12 13 14 15
000
FTUS43 KICT 201242 AAA
TAFSLN
TAF AMD
KSLN 201242Z 2013/2112 01013KT P6SM OVC010
     FM201700 01013KT P6SM OVC015
     FM202000 35013KT P6SM OVC025=

USA.gov is the U.S. government's official web portal to all federal, state and local government web resources and services.